Wetterdaten: Woche 23.07.12 - 29.07.12 (KW30)
Datum Zeit Temperatur Luftfeuchte Luftdruck Niederschlag Windrichtung Sonnenschein Solar Wind
23.07.2012 00:00 9,9 C 83 % 1025,1 hPa 0,0 l/m N 0,00 h 0 W/m 1,6 km/h (1 Bft)
23.07.2012 01:00 9,3 C 87 % 1025,0 hPa 0,0 l/m N 0,00 h 0 W/m 1,5 km/h (1 Bft)
23.07.2012 02:00 9,9 C 82 % 1024,8 hPa 0,0 l/m NO 0,00 h 0 W/m 6,4 km/h (2 Bft)
23.07.2012 03:00 9,7 C 82 % 1024,6 hPa 0,0 l/m NO 0,00 h 0 W/m 7,0 km/h (2 Bft)
23.07.2012 04:00 8,6 C 88 % 1024,4 hPa 0,0 l/m NO 0,00 h 0 W/m 3,6 km/h (1 Bft)
23.07.2012 05:00 8,1 C 90 % 1024,3 hPa 0,0 l/m N-NO 0,00 h 6 W/m 5,5 km/h (1 Bft)
23.07.2012 06:00 8,2 C 91 % 1024,3 hPa 0,0 l/m O-NO 0,00 h 35 W/m 7,2 km/h (2 Bft)
23.07.2012 07:00 10,1 C 86 % 1024,2 hPa 0,0 l/m O-NO 0,83 h 176 W/m 10,1 km/h (2 Bft)
23.07.2012 08:00 12,7 C 77 % 1024,1 hPa 0,0 l/m O-NO 1,00 h 348 W/m 16,6 km/h (3 Bft)
23.07.2012 09:00 14,3 C 71 % 1023,8 hPa 0,0 l/m O-NO 1,00 h 515 W/m 27,9 km/h (4 Bft)
23.07.2012 10:00 16,1 C 63 % 1023,5 hPa 0,0 l/m O-SO 1,00 h 646 W/m 27,8 km/h (4 Bft)
23.07.2012 11:00 17,8 C 56 % 1023,3 hPa 0,0 l/m O 1,00 h 786 W/m 30,6 km/h (5 Bft)
23.07.2012 12:00 19,0 C 52 % 1022,8 hPa 0,0 l/m NO 1,00 h 866 W/m 31,4 km/h (5 Bft)
23.07.2012 13:00 20,1 C 50 % 1022,0 hPa 0,0 l/m NO 1,00 h 893 W/m 29,7 km/h (5 Bft)
23.07.2012 14:00 20,9 C 48 % 1021,2 hPa 0,0 l/m O 1,00 h 875 W/m 31,1 km/h (5 Bft)
23.07.2012 15:00 21,7 C 47 % 1020,8 hPa 0,0 l/m NO 1,00 h 806 W/m 31,0 km/h (5 Bft)
23.07.2012 16:00 21,9 C 48 % 1020,3 hPa 0,0 l/m O-NO 1,00 h 694 W/m 30,6 km/h (5 Bft)
23.07.2012 17:00 21,9 C 47 % 1019,6 hPa 0,0 l/m O 1,00 h 553 W/m 28,7 km/h (4 Bft)
23.07.2012 18:00 21,5 C 46 % 1019,2 hPa 0,0 l/m O-NO 1,00 h 383 W/m 27,2 km/h (4 Bft)
23.07.2012 19:00 20,8 C 48 % 1019,1 hPa 0,0 l/m O 1,00 h 206 W/m 21,8 km/h (4 Bft)
23.07.2012 20:00 19,4 C 53 % 1018,9 hPa 0,0 l/m O-NO 0,25 h 29 W/m 17,4 km/h (3 Bft)
23.07.2012 21:00 18,0 C 58 % 1018,8 hPa 0,0 l/m O-NO 0,00 h 6 W/m 15,4 km/h (3 Bft)
23.07.2012 22:00 17,0 C 63 % 1018,7 hPa 0,0 l/m O-NO 0,00 h 0 W/m 13,0 km/h (3 Bft)
23.07.2012 23:00 16,3 C 67 % 1018,4 hPa 0,0 l/m O-NO 0,00 h 0 W/m 10,7 km/h (2 Bft)
24.07.2012 00:00 15,3 C 71 % 1018,0 hPa 0,0 l/m NO 0,00 h 0 W/m 7,0 km/h (2 Bft)
24.07.2012 01:00 14,3 C 77 % 1017,7 hPa 0,0 l/m NO 0,00 h 0 W/m 5,7 km/h (1 Bft)
24.07.2012 02:00 13,7 C 80 % 1017,4 hPa 0,0 l/m NO 0,00 h 0 W/m 6,6 km/h (2 Bft)
24.07.2012 03:00 13,1 C 82 % 1016,9 hPa 0,0 l/m N-NO 0,00 h 0 W/m 5,6 km/h (1 Bft)
24.07.2012 04:00 12,2 C 86 % 1016,5 hPa 0,0 l/m N-NO 0,00 h 0 W/m 3,5 km/h (1 Bft)
24.07.2012 05:00 11,5 C 89 % 1016,2 hPa 0,0 l/m N-NO 0,00 h 6 W/m 1,9 km/h (1 Bft)
24.07.2012 06:00 11,5 C 90 % 1016,0 hPa 0,0 l/m N 0,08 h 31 W/m 2,4 km/h (1 Bft)
24.07.2012 07:00 12,9 C 86 % 1016,0 hPa 0,0 l/m N-NO 0,50 h 147 W/m 2,9 km/h (1 Bft)
24.07.2012 08:00 14,9 C 80 % 1016,1 hPa 0,0 l/m N-NO 1,00 h 309 W/m 4,4 km/h (1 Bft)
24.07.2012 09:00 16,7 C 75 % 1015,8 hPa 0,0 l/m N-NO 1,00 h 472 W/m 5,3 km/h (1 Bft)
24.07.2012 10:00 18,4 C 71 % 1015,4 hPa 0,0 l/m NW 0,92 h 602 W/m 6,7 km/h (2 Bft)
24.07.2012 11:00 20,3 C 66 % 1015,1 hPa 0,0 l/m O-SO 1,00 h 749 W/m 8,0 km/h (2 Bft)
24.07.2012 12:00 22,4 C 61 % 1014,9 hPa 0,0 l/m O-SO 1,00 h 829 W/m 6,7 km/h (2 Bft)
24.07.2012 13:00 23,8 C 57 % 1014,5 hPa 0,0 l/m O-NO 1,00 h 860 W/m 7,2 km/h (2 Bft)
24.07.2012 14:00 25,6 C 52 % 1013,9 hPa 0,0 l/m O-SO 1,00 h 843 W/m 8,4 km/h (2 Bft)
24.07.2012 15:00 26,8 C 50 % 1013,5 hPa 0,0 l/m O-SO 1,00 h 778 W/m 8,0 km/h (2 Bft)
24.07.2012 16:00 27,3 C 49 % 1013,1 hPa 0,0 l/m NO 1,00 h 670 W/m 10,7 km/h (2 Bft)
24.07.2012 17:00 27,4 C 48 % 1012,7 hPa 0,0 l/m O 1,00 h 521 W/m 10,5 km/h (2 Bft)
24.07.2012 18:00 27,3 C 49 % 1012,3 hPa 0,0 l/m O-SO 1,00 h 357 W/m 8,7 km/h (2 Bft)
24.07.2012 19:00 26,3 C 53 % 1012,3 hPa 0,0 l/m O-SO 1,00 h 181 W/m 6,4 km/h (2 Bft)
24.07.2012 20:00 23,7 C 64 % 1012,4 hPa 0,0 l/m N 0,17 h 31 W/m 1,6 km/h (1 Bft)
24.07.2012 21:00 20,9 C 76 % 1012,5 hPa 0,0 l/m O-SO 0,00 h 5 W/m 1,9 km/h (1 Bft)
24.07.2012 22:00 19,7 C 80 % 1012,4 hPa 0,0 l/m O-SO 0,00 h 0 W/m 3,7 km/h (1 Bft)
24.07.2012 23:00 18,6 C 82 % 1012,3 hPa 0,0 l/m N 0,00 h 0 W/m 1,5 km/h (1 Bft)
25.07.2012 00:00 17,1 C 89 % 1012,5 hPa 0,0 l/m N 0,00 h 0 W/m 0,1 km/h (0 Bft)
25.07.2012 01:00 16,4 C 91 % 1012,6 hPa 0,0 l/m N 0,00 h 0 W/m 0,0 km/h (0 Bft)
25.07.2012 02:00 15,4 C 94 % 1012,5 hPa 0,0 l/m N 0,00 h 0 W/m 0,1 km/h (0 Bft)
25.07.2012 03:00 15,0 C 95 % 1012,2 hPa 0,0 l/m N 0,00 h 0 W/m 0,0 km/h (0 Bft)
25.07.2012 04:00 14,4 C 96 % 1012,2 hPa 0,0 l/m N 0,00 h 0 W/m 0,0 km/h (0 Bft)
25.07.2012 05:00 13,9 C 97 % 1012,4 hPa 0,0 l/m N 0,00 h 0 W/m 0,0 km/h (0 Bft)
25.07.2012 06:00 13,9 C 97 % 1012,6 hPa 0,0 l/m N 0,00 h 24 W/m 0,0 km/h (0 Bft)
25.07.2012 07:00 15,3 C 94 % 1012,8 hPa 0,0 l/m N 0,42 h 124 W/m 0,0 km/h (0 Bft)
25.07.2012 08:00 17,7 C 88 % 1012,8 hPa 0,0 l/m N 1,00 h 285 W/m 0,0 km/h (0 Bft)
25.07.2012 09:00 20,6 C 80 % 1012,7 hPa 0,0 l/m N 1,00 h 431 W/m 0,0 km/h (0 Bft)
25.07.2012 10:00 22,8 C 74 % 1012,6 hPa 0,0 l/m N 1,00 h 591 W/m 0,0 km/h (0 Bft)
25.07.2012 11:00 24,4 C 66 % 1012,5 hPa 0,0 l/m N-NO 0,92 h 644 W/m 2,1 km/h (1 Bft)
25.07.2012 12:00 26,1 C 59 % 1012,2 hPa 0,0 l/m N-NO 1,00 h 785 W/m 9,2 km/h (2 Bft)
25.07.2012 13:00 27,2 C 55 % 1012,0 hPa 0,0 l/m O 1,00 h 806 W/m 9,8 km/h (2 Bft)
25.07.2012 14:00 27,8 C 51 % 1011,6 hPa 0,0 l/m O-NO 1,00 h 670 W/m 14,1 km/h (3 Bft)
25.07.2012 15:00 27,9 C 47 % 1011,8 hPa 0,0 l/m O-NO 0,75 h 533 W/m 13,0 km/h (3 Bft)
25.07.2012 16:00 27,6 C 48 % 1012,1 hPa 0,0 l/m O-SO 0,67 h 409 W/m 13,8 km/h (3 Bft)
25.07.2012 17:00 27,3 C 50 % 1012,3 hPa 0,0 l/m O-SO 0,92 h 490 W/m 16,1 km/h (3 Bft)
25.07.2012 18:00 26,5 C 56 % 1012,8 hPa 0,0 l/m O-SO 0,25 h 203 W/m 11,7 km/h (2 Bft)
25.07.2012 19:00 23,8 C 63 % 1013,1 hPa 0,0 l/m SO 0,00 h 62 W/m 14,0 km/h (3 Bft)
25.07.2012 20:00 22,8 C 67 % 1013,6 hPa 0,0 l/m S-SO 0,17 h 34 W/m 8,6 km/h (2 Bft)
25.07.2012 21:00 20,8 C 70 % 1013,9 hPa 0,0 l/m N 0,00 h 6 W/m 2,4 km/h (1 Bft)
25.07.2012 22:00 18,6 C 80 % 1014,2 hPa 0,0 l/m N 0,00 h 0 W/m 0,0 km/h (0 Bft)
25.07.2012 23:00 17,8 C 83 % 1014,5 hPa 0,0 l/m N 0,00 h 0 W/m 0,8 km/h (0 Bft)
26.07.2012 00:00 17,0 C 87 % 1014,5 hPa 0,0 l/m N 0,00 h 0 W/m 0,1 km/h (0 Bft)
26.07.2012 01:00 16,1 C 90 % 1014,5 hPa 0,0 l/m N 0,00 h 0 W/m 0,0 km/h (0 Bft)
26.07.2012 02:00 15,4 C 92 % 1014,4 hPa 0,0 l/m N 0,00 h 0 W/m 0,0 km/h (0 Bft)
26.07.2012 03:00 14,9 C 94 % 1014,4 hPa 0,0 l/m N 0,00 h 0 W/m 0,0 km/h (0 Bft)
26.07.2012 04:00 14,4 C 95 % 1014,5 hPa 0,0 l/m N 0,00 h 0 W/m 0,0 km/h (0 Bft)
26.07.2012 05:00 14,0 C 96 % 1014,6 hPa 0,0 l/m N 0,00 h 5 W/m 0,0 km/h (0 Bft)
26.07.2012 06:00 13,8 C 96 % 1014,8 hPa 0,0 l/m N 0,00 h 25 W/m 0,0 km/h (0 Bft)
26.07.2012 07:00 15,3 C 93 % 1015,0 hPa 0,0 l/m S 0,25 h 127 W/m 1,7 km/h (1 Bft)
26.07.2012 08:00 18,4 C 85 % 1015,3 hPa 0,0 l/m S 1,00 h 283 W/m 4,9 km/h (1 Bft)
26.07.2012 09:00 21,2 C 75 % 1015,1 hPa 0,0 l/m S 1,00 h 447 W/m 8,9 km/h (2 Bft)
26.07.2012 10:00 23,5 C 67 % 1015,1 hPa 0,0 l/m S 0,92 h 574 W/m 9,5 km/h (2 Bft)
26.07.2012 11:00 25,4 C 59 % 1015,0 hPa 0,0 l/m S 1,00 h 722 W/m 6,7 km/h (2 Bft)
26.07.2012 12:00 27,1 C 54 % 1014,9 hPa 0,0 l/m S-SW 1,00 h 806 W/m 8,2 km/h (2 Bft)
26.07.2012 13:00 28,2 C 49 % 1014,6 hPa 0,0 l/m W-SW 1,00 h 847 W/m 7,8 km/h (2 Bft)
26.07.2012 14:00 29,2 C 46 % 1014,4 hPa 0,0 l/m SW 1,00 h 840 W/m 7,1 km/h (2 Bft)
26.07.2012 15:00 29,9 C 45 % 1014,0 hPa 0,0 l/m SW 1,00 h 773 W/m 9,0 km/h (2 Bft)
26.07.2012 16:00 29,9 C 44 % 1013,5 hPa 0,0 l/m SW 1,00 h 666 W/m 6,1 km/h (2 Bft)
26.07.2012 17:00 29,5 C 44 % 1013,1 hPa 0,0 l/m SW 0,83 h 438 W/m 4,8 km/h (1 Bft)
26.07.2012 18:00 29,4 C 45 % 1012,7 hPa 0,0 l/m N 1,00 h 332 W/m 2,7 km/h (1 Bft)
26.07.2012 19:00 28,1 C 56 % 1012,6 hPa 0,0 l/m N 1,00 h 166 W/m 1,1 km/h (0 Bft)
26.07.2012 20:00 24,8 C 65 % 1013,0 hPa 0,0 l/m N 0,08 h 18 W/m 0,0 km/h (0 Bft)
26.07.2012 21:00 22,6 C 71 % 1013,3 hPa 0,0 l/m N 0,00 h 0 W/m 0,0 km/h (0 Bft)
26.07.2012 22:00 20,8 C 77 % 1013,6 hPa 0,0 l/m N 0,00 h 0 W/m 0,8 km/h (0 Bft)
26.07.2012 23:00 19,8 C 80 % 1013,4 hPa 0,0 l/m N 0,00 h 0 W/m 1,2 km/h (1 Bft)
27.07.2012 00:00 19,3 C 82 % 1013,3 hPa 0,0 l/m N 0,00 h 0 W/m 0,4 km/h (0 Bft)
27.07.2012 01:00 18,6 C 85 % 1013,0 hPa 0,0 l/m W-SW 0,00 h 0 W/m 2,8 km/h (1 Bft)
27.07.2012 02:00 18,4 C 84 % 1012,5 hPa 0,0 l/m W-SW 0,00 h 0 W/m 2,3 km/h (1 Bft)
27.07.2012 03:00 17,3 C 88 % 1012,4 hPa 0,0 l/m N 0,00 h 0 W/m 0,5 km/h (0 Bft)
27.07.2012 04:00 16,0 C 92 % 1012,6 hPa 0,0 l/m N 0,00 h 0 W/m 0,1 km/h (0 Bft)
27.07.2012 05:00 15,2 C 94 % 1012,6 hPa 0,0 l/m N 0,00 h 5 W/m 0,0 km/h (0 Bft)
27.07.2012 06:00 15,1 C 95 % 1012,7 hPa 0,0 l/m N 0,00 h 27 W/m 0,0 km/h (0 Bft)
27.07.2012 07:00 17,4 C 89 % 1012,8 hPa 0,0 l/m N 0,50 h 145 W/m 0,1 km/h (0 Bft)
27.07.2012 08:00 20,0 C 82 % 1012,8 hPa 0,0 l/m S 1,00 h 309 W/m 2,5 km/h (1 Bft)
27.07.2012 09:00 22,5 C 73 % 1012,5 hPa 0,0 l/m S 0,92 h 447 W/m 5,5 km/h (1 Bft)
27.07.2012 10:00 24,3 C 69 % 1012,4 hPa 0,0 l/m S-SW 0,92 h 594 W/m 7,2 km/h (2 Bft)
27.07.2012 11:00 26,3 C 63 % 1012,1 hPa 0,0 l/m S-SO 1,00 h 747 W/m 7,0 km/h (2 Bft)
27.07.2012 12:00 28,3 C 58 % 1011,5 hPa 0,0 l/m S-SO 1,00 h 824 W/m 10,5 km/h (2 Bft)
27.07.2012 13:00 29,6 C 55 % 1010,8 hPa 0,0 l/m S-SW 1,00 h 853 W/m 12,2 km/h (2 Bft)
27.07.2012 14:00 30,6 C 43 % 1010,3 hPa 0,0 l/m SW 1,00 h 839 W/m 12,6 km/h (3 Bft)
27.07.2012 15:00 31,5 C 38 % 1009,7 hPa 0,0 l/m SW 1,00 h 777 W/m 13,8 km/h (3 Bft)
27.07.2012 16:00 31,7 C 34 % 1009,1 hPa 0,0 l/m SW 1,00 h 656 W/m 12,2 km/h (2 Bft)
27.07.2012 17:00 31,4 C 34 % 1008,4 hPa 0,0 l/m SW 1,00 h 512 W/m 10,1 km/h (2 Bft)
27.07.2012 18:00 30,8 C 39 % 1007,8 hPa 0,0 l/m SW 1,00 h 346 W/m 3,6 km/h (1 Bft)
27.07.2012 19:00 28,4 C 54 % 1007,2 hPa 0,0 l/m N 1,00 h 161 W/m 0,5 km/h (0 Bft)
27.07.2012 20:00 24,9 C 64 % 1007,3 hPa 0,0 l/m N 0,33 h 33 W/m 0,4 km/h (0 Bft)
27.07.2012 21:00 22,9 C 64 % 1007,5 hPa 0,0 l/m SW 0,00 h 0 W/m 1,3 km/h (1 Bft)
27.07.2012 22:00 23,2 C 62 % 1008,0 hPa 0,0 l/m S-SW 0,00 h 0 W/m 14,1 km/h (3 Bft)
27.07.2012 23:00 22,2 C 63 % 1007,8 hPa 0,0 l/m S-SW 0,00 h 0 W/m 6,1 km/h (2 Bft)
28.07.2012 00:00 22,6 C 58 % 1008,4 hPa 0,0 l/m SW 0,00 h 0 W/m 16,2 km/h (3 Bft)
28.07.2012 01:00 20,7 C 68 % 1008,2 hPa 0,0 l/m W-SW 0,00 h 0 W/m 3,6 km/h (1 Bft)
28.07.2012 02:00 18,9 C 77 % 1007,6 hPa 0,0 l/m N 0,00 h 0 W/m 0,9 km/h (0 Bft)
28.07.2012 03:00 18,1 C 80 % 1007,1 hPa 0,0 l/m N 0,00 h 0 W/m 0,1 km/h (0 Bft)
28.07.2012 04:00 17,2 C 84 % 1006,8 hPa 0,0 l/m N 0,00 h 0 W/m 0,0 km/h (0 Bft)
28.07.2012 05:00 16,9 C 85 % 1007,1 hPa 0,0 l/m N 0,00 h 7 W/m 0,0 km/h (0 Bft)
28.07.2012 06:00 16,6 C 87 % 1007,4 hPa 0,0 l/m N 0,17 h 21 W/m 0,0 km/h (0 Bft)
28.07.2012 07:00 18,3 C 83 % 1008,0 hPa 0,0 l/m W-SW 0,00 h 47 W/m 6,6 km/h (2 Bft)
28.07.2012 08:00 20,0 C 80 % 1008,0 hPa 0,0 l/m W 0,08 h 115 W/m 5,9 km/h (2 Bft)
28.07.2012 09:00 21,4 C 76 % 1008,0 hPa 0,0 l/m SW 0,42 h 257 W/m 7,6 km/h (2 Bft)
28.07.2012 10:00 21,7 C 75 % 1008,0 hPa 0,0 l/m W-SW 0,00 h 140 W/m 11,1 km/h (2 Bft)
28.07.2012 11:00 21,5 C 78 % 1008,1 hPa 0,0 l/m SW 0,00 h 300 W/m 14,2 km/h (3 Bft)
28.07.2012 12:00 22,6 C 73 % 1008,2 hPa 0,0 l/m SW 0,08 h 315 W/m 13,7 km/h (3 Bft)
28.07.2012 13:00 22,7 C 71 % 1008,3 hPa 0,0 l/m SW 0,00 h 202 W/m 16,0 km/h (3 Bft)
28.07.2012 14:00 22,5 C 72 % 1008,2 hPa 0,0 l/m SW 0,33 h 443 W/m 26,4 km/h (4 Bft)
28.07.2012 15:00 23,1 C 70 % 1007,6 hPa 0,0 l/m W-SW 0,42 h 535 W/m 20,8 km/h (4 Bft)
28.07.2012 16:00 23,3 C 68 % 1008,1 hPa 0,0 l/m W 0,08 h 168 W/m 14,6 km/h (3 Bft)
28.07.2012 17:00 22,4 C 76 % 1008,0 hPa 0,0 l/m W 0,00 h 219 W/m 9,5 km/h (2 Bft)
28.07.2012 18:00 22,7 C 74 % 1007,8 hPa 0,0 l/m W 0,33 h 197 W/m 7,4 km/h (2 Bft)
28.07.2012 19:00 21,7 C 71 % 1008,0 hPa 0,0 l/m W 0,00 h 44 W/m 15,2 km/h (3 Bft)
28.07.2012 20:00 21,0 C 74 % 1008,3 hPa 0,0 l/m W-SW 0,00 h 11 W/m 10,2 km/h (2 Bft)
28.07.2012 21:00 19,7 C 82 % 1008,9 hPa 0,0 l/m W 0,00 h 0 W/m 6,4 km/h (2 Bft)
28.07.2012 22:00 18,6 C 87 % 1009,6 hPa 0,2 l/m N 0,00 h 0 W/m 2,5 km/h (1 Bft)
28.07.2012 23:00 17,8 C 90 % 1009,6 hPa 0,0 l/m N 0,00 h 0 W/m 2,0 km/h (1 Bft)
29.07.2012 00:00 17,4 C 92 % 1009,5 hPa 0,0 l/m W 0,00 h 0 W/m 3,3 km/h (1 Bft)
29.07.2012 01:00 17,0 C 93 % 1009,2 hPa 0,0 l/m W-SW 0,00 h 0 W/m 4,1 km/h (1 Bft)
29.07.2012 02:00 16,6 C 93 % 1008,9 hPa 0,0 l/m W-SW 0,00 h 0 W/m 4,5 km/h (1 Bft)
29.07.2012 03:00 16,2 C 95 % 1008,8 hPa 0,0 l/m W-SW 0,00 h 0 W/m 2,4 km/h (1 Bft)
29.07.2012 04:00 16,2 C 94 % 1008,6 hPa 0,0 l/m S 0,00 h 0 W/m 2,7 km/h (1 Bft)
29.07.2012 05:00 16,0 C 96 % 1008,7 hPa 0,0 l/m N 0,00 h 0 W/m 1,1 km/h (0 Bft)
29.07.2012 06:00 16,2 C 96 % 1009,0 hPa 0,0 l/m S-SW 0,00 h 16 W/m 6,6 km/h (2 Bft)
29.07.2012 07:00 16,6 C 95 % 1009,4 hPa 2,6 l/m W-SW 0,00 h 30 W/m 10,6 km/h (2 Bft)
29.07.2012 08:00 16,8 C 97 % 1010,1 hPa 0,0 l/m SW 0,00 h 49 W/m 10,4 km/h (2 Bft)
29.07.2012 09:00 17,5 C 96 % 1010,7 hPa 0,0 l/m W-SW 0,08 h 183 W/m 10,3 km/h (2 Bft)
29.07.2012 10:00 18,3 C 91 % 1011,0 hPa 0,2 l/m W 0,00 h 142 W/m 9,0 km/h (2 Bft)
29.07.2012 11:00 16,0 C 93 % 1011,8 hPa 8,4 l/m NW 0,00 h 55 W/m 12,1 km/h (2 Bft)
29.07.2012 12:00 15,9 C 96 % 1012,1 hPa 0,8 l/m NW 0,00 h 93 W/m 6,3 km/h (2 Bft)
29.07.2012 13:00 16,0 C 94 % 1012,7 hPa 0,2 l/m W-NW 0,00 h 138 W/m 10,9 km/h (2 Bft)
29.07.2012 14:00 16,7 C 90 % 1013,2 hPa 0,0 l/m W-NW 0,00 h 173 W/m 7,9 km/h (2 Bft)
29.07.2012 15:00 17,5 C 85 % 1013,5 hPa 0,0 l/m W-NW 0,17 h 320 W/m 10,5 km/h (2 Bft)
29.07.2012 16:00 18,4 C 80 % 1013,4 hPa 0,0 l/m W-SW 0,25 h 293 W/m 11,2 km/h (2 Bft)
29.07.2012 17:00 17,9 C 80 % 1013,7 hPa 0,0 l/m W 0,08 h 121 W/m 8,3 km/h (2 Bft)
29.07.2012 18:00 18,0 C 79 % 1013,8 hPa 0,0 l/m W-SW 0,17 h 131 W/m 8,3 km/h (2 Bft)
29.07.2012 19:00 17,1 C 83 % 1014,3 hPa 0,0 l/m SW 0,00 h 43 W/m 10,7 km/h (2 Bft)
29.07.2012 20:00 16,5 C 85 % 1014,9 hPa 0,0 l/m SW 0,00 h 18 W/m 6,3 km/h (2 Bft)
29.07.2012 21:00 15,7 C 88 % 1015,6 hPa 0,0 l/m N 0,00 h 0 W/m 2,4 km/h (1 Bft)
29.07.2012 22:00 14,9 C 92 % 1016,1 hPa 0,0 l/m N 0,00 h 0 W/m 0,0 km/h (0 Bft)
29.07.2012 23:00 13,7 C 95 % 1016,2 hPa 0,0 l/m N 0,00 h 0 W/m 0,1 km/h (0 Bft)
Min-Datum _ 23.07.12 27.07.12 28.07.12 - - - - 23.07.12
_ Min-Zeit 06:05 16:35 03:55 - - - - 00:05
Minimum _ 7,9 C 30 % 1006,7 hPa - - - - 0,0 km/h (0 Bft)
Max-Datum _ 27.07.12 29.07.12 23.07.12 29.07.12 - 23.07.12 25.07.12 23.07.12
_ Max-Zeit 16:15 08:55 00:15 11:05 - 07:10 13:25 09:55
Maximum _ 32,1 C 98 % 1025,2 hPa 8,4 l/m - 0,08 h 956 W/m 38,6 km/h
O (5 Bft)
Durchschnitt _ 19,8 C 74 % 1013,5 hPa #12,4 l/m SW #63:15 h 358 W/m 7,5 km/h (2 Bft)